Time;durP1;ratioP1;P1;durP2;ratioP2;P2;SDS_P1;SDS_P2;PMS_P1;PMS_P2;Temp;Humidity;BMP_temperature;BMP_pressure;BME280_temperature;BME280_humidity;BME280_pressure;Samples;Min_cycle;Max_cycle;Signal;HPM_P1;HPM_P2
2021/04/20 00:01:03;;;;;;;45.67;33.63;;;8.20;86.50;;;;;;5052322;28;20041;-78
2021/04/20 00:03:29;;;;;;;43.13;31.13;;;8.20;86.70;;;;;;5052621;28;20139;-77
2021/04/20 00:05:55;;;;;;;41.60;31.37;;;8.20;86.50;;;;;;5052199;28;20029;-78
2021/04/20 00:08:20;;;;;;;39.53;31.10;;;8.10;86.30;;;;;;5053186;28;20037;-79
2021/04/20 00:10:46;;;;;;;42.30;32.10;;;8.00;86.10;;;;;;5051487;28;20839;-78
2021/04/20 00:13:12;;;;;;;46.80;33.03;;;7.90;86.40;;;;;;5052105;28;20025;-76
2021/04/20 00:15:38;;;;;;;46.23;34.87;;;7.80;86.40;;;;;;5051166;28;20449;-78
2021/04/20 00:18:06;;;;;;;47.10;36.67;;;7.80;86.70;;;;;;5053174;28;20116;-78
2021/04/20 00:20:32;;;;;;;47.30;35.77;;;7.80;87.20;;;;;;5050919;28;20052;-78
2021/04/20 00:22:58;;;;;;;48.70;35.90;;;7.80;87.10;;;;;;5053221;28;20542;-78
2021/04/20 00:25:24;;;;;;;48.93;35.17;;;7.80;87.50;;;;;;5052875;28;20108;-79
2021/04/20 00:27:49;;;;;;;49.73;35.43;;;7.80;87.30;;;;;;5051132;28;20049;-78
2021/04/20 00:30:16;;;;;;;48.80;34.80;;;7.80;87.10;;;;;;5051949;28;20394;-77
2021/04/20 00:32:42;;;;;;;53.07;37.90;;;7.70;87.10;;;;;;5052022;28;20029;-78
2021/04/20 00:35:09;;;;;;;49.33;37.10;;;7.70;87.30;;;;;;5053164;28;20086;-77
2021/04/20 00:37:35;;;;;;;48.97;35.73;;;7.80;87.50;;;;;;5051171;28;20045;-78
2021/04/20 00:40:06;;;;;;;55.37;37.17;;;7.80;87.40;;;;;;5062576;28;20158;-76
2021/04/20 00:42:31;;;;;;;49.63;36.83;;;7.80;87.60;;;;;;5054693;28;20028;-79
2021/04/20 00:44:57;;;;;;;50.93;36.23;;;7.80;87.70;;;;;;5062020;28;20037;-77
2021/04/20 00:47:23;;;;;;;50.30;37.60;;;7.90;87.70;;;;;;5042422;28;20610;-79
2021/04/20 00:49:48;;;;;;;50.10;36.87;;;7.80;87.50;;;;;;5034085;28;20589;-78
2021/04/20 00:52:14;;;;;;;50.10;35.50;;;7.80;87.50;;;;;;5050575;28;20029;-78
2021/04/20 00:54:40;;;;;;;49.73;36.20;;;7.70;87.30;;;;;;5033829;28;20079;-76
2021/04/20 00:57:07;;;;;;;49.67;36.63;;;7.70;87.30;;;;;;5052722;28;20036;-78
2021/04/20 00:59:33;;;;;;;51.67;36.20;;;7.60;87.50;;;;;;5049139;28;20045;-81
2021/04/20 01:01:59;;;;;;;53.43;37.03;;;7.60;87.60;;;;;;5052125;28;20025;-78
2021/04/20 01:04:24;;;;;;;51.37;35.17;;;7.60;87.50;;;;;;5051909;28;20484;-77
2021/04/20 01:06:50;;;;;;;46.47;34.47;;;7.50;87.40;;;;;;5051316;28;20611;-78
2021/04/20 01:09:20;;;;;;;50.00;36.23;;;7.50;87.40;;;;;;5052526;28;20025;-78
2021/04/20 01:11:46;;;;;;;46.80;33.83;;;7.50;87.60;;;;;;5050245;28;20394;-79
2021/04/20 01:14:13;;;;;;;44.13;33.13;;;7.50;87.50;;;;;;5050456;28;20033;-77
2021/04/20 01:16:38;;;;;;;50.00;35.03;;;7.50;87.50;;;;;;5051170;28;20025;-77
2021/04/20 01:19:08;;;;;;;47.20;35.53;;;7.40;87.50;;;;;;5052125;28;20025;-76
2021/04/20 01:21:37;;;;;;;48.00;34.90;;;7.40;87.70;;;;;;5050237;28;20039;-80
2021/04/20 01:24:08;;;;;;;45.97;34.43;;;7.50;87.80;;;;;;5052095;28;20422;-77
2021/04/20 01:26:43;;;;;;;43.33;31.80;;;7.50;87.80;;;;;;5050673;28;20562;-81
2021/04/20 01:29:09;;;;;;;38.80;29.17;;;7.40;87.60;;;;;;5051565;28;20031;-78
2021/04/20 01:31:38;;;;;;;42.47;32.27;;;7.40;87.50;;;;;;5052182;28;20112;-82
2021/04/20 01:34:05;;;;;;;41.93;31.10;;;7.40;87.60;;;;;;5050534;28;20029;-77
2021/04/20 01:36:31;;;;;;;35.20;27.70;;;7.40;87.80;;;;;;5050505;28;20068;-78
2021/04/20 01:38:58;;;;;;;41.70;30.90;;;7.20;87.90;;;;;;5049517;28;20586;-78
2021/04/20 01:41:26;;;;;;;43.00;31.70;;;7.10;87.70;;;;;;5020771;28;20410;-79
2021/04/20 01:43:53;;;;;;;43.37;32.67;;;7.00;87.90;;;;;;5030878;28;20022;-75
2021/04/20 01:46:20;;;;;;;47.70;35.03;;;7.10;88.30;;;;;;5031583;28;20109;-77
2021/04/20 01:48:47;;;;;;;46.67;34.63;;;7.10;88.60;;;;;;5031560;28;20056;-77
2021/04/20 01:51:14;;;;;;;42.30;32.13;;;7.10;88.60;;;;;;5029781;28;20033;-77
2021/04/20 01:53:40;;;;;;;40.40;31.53;;;7.20;88.60;;;;;;5030114;28;20040;-81
2021/04/20 01:56:08;;;;;;;43.40;32.20;;;7.00;88.10;;;;;;5041810;28;20036;-77
2021/04/20 01:58:37;;;;;;;48.23;34.10;;;7.00;88.20;;;;;;5069990;28;20186;-78
2021/04/20 02:01:06;;;;;;;47.87;34.10;;;6.90;88.00;;;;;;5054056;28;20017;-78
2021/04/20 02:03:33;;;;;;;48.63;34.97;;;6.90;88.60;;;;;;5071489;28;20028;-78
2021/04/20 02:06:00;;;;;;;44.83;34.37;;;6.90;88.70;;;;;;5067275;28;20059;-77
2021/04/20 02:08:26;;;;;;;44.33;32.83;;;7.00;88.80;;;;;;5052009;28;20040;-78
2021/04/20 02:10:52;;;;;;;46.60;33.37;;;6.90;88.50;;;;;;5058988;28;20245;-77
2021/04/20 02:13:20;;;;;;;45.13;33.60;;;6.90;88.40;;;;;;5071472;28;20048;-78
2021/04/20 02:15:47;;;;;;;72.50;34.60;;;7.00;88.60;;;;;;5069648;28;20041;-78
2021/04/20 02:18:14;;;;;;;75.47;39.37;;;7.10;88.60;;;;;;5069453;28;20024;-78
2021/04/20 02:20:41;;;;;;;86.10;39.20;;;7.20;88.50;;;;;;5071022;28;20047;-78
2021/04/20 02:23:07;;;;;;;69.00;39.17;;;7.30;88.50;;;;;;5068137;28;20037;-78
2021/04/20 02:25:33;;;;;;;79.60;41.60;;;7.30;88.30;;;;;;5067207;28;20063;-78
2021/04/20 02:27:59;;;;;;;105.20;38.40;;;7.30;88.80;;;;;;5069701;28;20040;-77
2021/04/20 02:30:27;;;;;;;96.00;38.90;;;7.20;88.20;;;;;;5069027;28;20032;-77
2021/04/20 02:32:55;;;;;;;106.17;38.13;;;7.10;87.90;;;;;;5069817;28;20029;-78
2021/04/20 02:35:21;;;;;;;98.57;38.07;;;6.90;88.00;;;;;;5067875;28;20115;-76
2021/04/20 02:37:47;;;;;;;107.80;38.37;;;6.70;88.20;;;;;;5067596;28;20451;-81
2021/04/20 02:40:25;;;;;;;124.07;38.43;;;6.70;88.80;;;;;;5064273;28;20029;-77
2021/04/20 02:42:52;;;;;;;132.57;40.17;;;6.60;89.00;;;;;;5070189;28;20025;-76
2021/04/20 02:45:21;;;;;;;103.47;42.47;;;6.50;89.30;;;;;;5068211;28;20029;-78
2021/04/20 02:47:48;;;;;;;112.70;41.90;;;6.60;90.00;;;;;;5066525;28;20036;-80
2021/04/20 02:50:16;;;;;;;112.90;37.27;;;6.70;89.90;;;;;;5070380;28;20031;-78
2021/04/20 02:52:43;;;;;;;110.67;34.97;;;6.80;89.70;;;;;;5067848;28;20055;-78
2021/04/20 02:55:10;;;;;;;131.00;38.60;;;6.70;89.40;;;;;;5068700;28;20024;-77
2021/04/20 02:57:39;;;;;;;118.03;36.00;;;6.60;89.40;;;;;;5069191;28;20042;-78
2021/04/20 03:00:08;;;;;;;113.47;35.83;;;6.60;89.50;;;;;;5048646;28;20102;-76
2021/04/20 03:02:37;;;;;;;119.30;36.17;;;6.50;89.80;;;;;;5070473;28;20028;-77
2021/04/20 03:05:06;;;;;;;137.20;34.37;;;6.60;90.00;;;;;;5068650;28;20923;-77
2021/04/20 03:07:33;;;;;;;95.80;35.90;;;6.60;90.00;;;;;;5069248;28;20045;-78
2021/04/20 03:10:00;;;;;;;154.73;34.97;;;6.70;90.00;;;;;;5066740;28;20036;-79
2021/04/20 03:12:26;;;;;;;131.50;33.93;;;6.70;90.10;;;;;;5067348;28;20028;-78
2021/04/20 03:14:52;;;;;;;73.97;33.20;;;6.60;89.80;;;;;;5078417;28;20039;-81
2021/04/20 03:17:19;;;;;;;70.60;32.40;;;6.70;90.00;;;;;;5067845;28;20380;-77
2021/04/20 03:19:45;;;;;;;78.57;31.33;;;6.70;90.00;;;;;;5039841;28;20535;-78
2021/04/20 03:22:13;;;;;;;231.83;32.13;;;6.80;90.00;;;;;;5071561;28;20142;-78
2021/04/20 03:25:02;;;;;;;136.97;30.00;;;6.70;89.10;;;;;;5070161;28;20036;-77
2021/04/20 03:27:28;;;;;;;220.43;32.97;;;6.50;89.50;;;;;;5070559;28;20036;-76
2021/04/20 03:29:54;;;;;;;193.90;34.80;;;6.20;89.10;;;;;;5067790;28;20470;-80
2021/04/20 03:32:20;;;;;;;115.70;33.03;;;5.90;89.40;;;;;;5067010;28;20040;-77
2021/04/20 03:35:17;;;;;;;106.07;33.13;;;5.60;89.60;;;;;;5070573;28;20039;-77
2021/04/20 03:38:19;;;;;;;93.93;34.33;;;5.60;90.10;;;;;;5052985;28;20048;-78
2021/04/20 03:40:50;;;;;;;101.20;31.23;;;5.80;90.30;;;;;;5021311;28;20068;-78
2021/04/20 03:43:19;;;;;;;94.20;31.80;;;5.80;90.10;;;;;;5069234;28;20024;-77
2021/04/20 03:45:50;;;;;;;120.47;31.93;;;5.70;90.00;;;;;;5066056;28;20121;-77
2021/04/20 03:48:20;;;;;;;90.13;33.83;;;5.50;89.90;;;;;;5061627;28;20028;-78
2021/04/20 03:50:55;;;;;;;92.77;32.40;;;5.50;90.10;;;;;;5069839;28;20029;-78
2021/04/20 03:53:23;;;;;;;113.17;33.40;;;5.60;90.20;;;;;;5067150;28;20028;-77
2021/04/20 03:55:50;;;;;;;91.67;34.53;;;5.50;90.00;;;;;;5069821;28;20025;-77
2021/04/20 03:58:20;;;;;;;112.87;36.40;;;5.40;90.00;;;;;;5066335;28;20106;-78
2021/04/20 04:00:51;;;;;;;115.83;37.30;;;5.50;90.10;;;;;;5069698;28;20025;-78
2021/04/20 04:03:21;;;;;;;86.80;34.57;;;5.40;90.10;;;;;;5066500;28;20021;-81
2021/04/20 04:05:48;;;;;;;69.07;34.70;;;5.30;90.10;;;;;;5068572;28;20028;-78
2021/04/20 04:08:17;;;;;;;136.80;37.13;;;5.40;90.20;;;;;;5069149;28;20033;-78
2021/04/20 04:10:45;;;;;;;107.03;33.00;;;5.40;90.20;;;;;;5067192;28;20086;-80
2021/04/20 04:13:13;;;;;;;73.60;31.80;;;5.50;90.20;;;;;;5065850;28;20546;-78
2021/04/20 04:15:40;;;;;;;86.13;33.23;;;5.50;90.20;;;;;;5045173;28;20041;-78
2021/04/20 04:18:10;;;;;;;108.57;31.40;;;5.40;90.10;;;;;;5036896;28;20612;-78
2021/04/20 04:20:35;;;;;;;64.90;28.70;;;5.50;90.30;;;;;;5068418;28;20063;-77
2021/04/20 04:23:14;;;;;;;93.00;31.00;;;5.50;90.20;;;;;;5071412;28;20060;-81
2021/04/20 04:25:47;;;;;;;60.37;29.23;;;5.50;90.30;;;;;;5071101;28;20521;-78
2021/04/20 04:28:14;;;;;;;60.77;28.83;;;5.70;90.40;;;;;;5071217;28;20028;-79
2021/04/20 04:30:40;;;;;;;60.67;27.97;;;5.70;90.20;;;;;;5073260;28;20025;-79
2021/04/20 04:33:07;;;;;;;53.63;28.33;;;5.80;90.10;;;;;;5070013;28;20103;-79
2021/04/20 04:35:35;;;;;;;57.37;29.57;;;5.80;89.90;;;;;;5069616;28;20033;-81
2021/04/20 04:38:01;;;;;;;56.63;27.53;;;5.90;90.10;;;;;;5073015;28;20040;-77
2021/04/20 04:40:27;;;;;;;55.27;27.07;;;5.90;89.80;;;;;;5051429;28;20474;-79
2021/04/20 04:42:53;;;;;;;38.67;25.67;;;5.90;89.50;;;;;;5071652;28;20033;-79
2021/04/20 04:45:20;;;;;;;50.33;23.30;;;5.90;89.30;;;;;;5069507;28;20382;-78
2021/04/20 04:47:46;;;;;;;42.53;24.13;;;5.90;89.30;;;;;;5070391;28;20115;-76
2021/04/20 04:50:12;;;;;;;62.77;24.33;;;5.90;88.60;;;;;;5054280;28;20128;-78
2021/04/20 04:52:40;;;;;;;59.77;24.17;;;5.80;88.60;;;;;;5053907;28;20021;-77
2021/04/20 04:55:07;;;;;;;39.13;24.00;;;5.90;88.90;;;;;;5052262;28;20452;-80
2021/04/20 04:57:34;;;;;;;88.03;24.70;;;5.90;88.70;;;;;;5065613;28;20486;-79
2021/04/20 05:00:01;;;;;;;73.30;25.40;;;5.90;88.50;;;;;;5070657;28;20509;-77
2021/04/20 05:02:27;;;;;;;50.33;24.90;;;5.90;88.70;;;;;;5071852;28;20623;-78
2021/04/20 05:05:03;;;;;;;76.47;23.77;;;6.00;88.60;;;;;;5064799;28;20037;-77
2021/04/20 05:07:29;;;;;;;60.27;25.37;;;6.00;88.30;;;;;;5067867;28;20037;-77
2021/04/20 05:10:04;;;;;;;91.57;25.47;;;6.10;88.20;;;;;;5071043;28;20031;-78
2021/04/20 05:12:32;;;;;;;133.17;27.30;;;6.10;88.30;;;;;;5069139;28;20056;-79
2021/04/20 05:15:04;;;;;;;193.50;29.83;;;6.10;88.00;;;;;;5071103;28;20489;-78
2021/04/20 05:17:30;;;;;;;128.82;27.80;;;6.00;87.50;;;;;;5069161;28;20709;-78
2021/04/20 05:19:56;;;;;;;117.33;30.47;;;5.70;87.70;;;;;;5013433;28;20159;-77
2021/04/20 05:22:22;;;;;;;72.27;27.23;;;5.80;88.50;;;;;;5059897;28;20032;-77
2021/04/20 05:24:47;;;;;;;259.50;35.47;;;5.90;88.70;;;;;;5067313;28;20398;-80
2021/04/20 05:27:13;;;;;;;57.50;29.37;;;6.00;88.30;;;;;;5064488;28;20055;-78
2021/04/20 05:29:40;;;;;;;61.63;28.87;;;6.10;88.40;;;;;;5070803;28;20429;-78
2021/04/20 05:32:09;;;;;;;78.70;29.93;;;6.30;88.50;;;;;;5061416;28;20036;-79
2021/04/20 05:34:35;;;;;;;50.77;29.27;;;6.40;88.10;;;;;;5058868;28;20111;-79
2021/04/20 05:37:02;;;;;;;95.00;29.90;;;6.60;88.10;;;;;;5069029;28;20190;-79
2021/04/20 05:39:28;;;;;;;89.50;31.90;;;6.70;87.30;;;;;;5066293;28;20024;-78
2021/04/20 05:41:54;;;;;;;83.40;41.33;;;6.80;87.10;;;;;;5071747;28;20493;-78
2021/04/20 05:44:20;;;;;;;69.00;33.33;;;7.30;88.80;;;;;;5067236;28;20032;-78
2021/04/20 05:46:47;;;;;;;66.47;29.37;;;7.80;87.60;;;;;;5070583;28;20052;-79
2021/04/20 05:49:17;;;;;;;72.37;27.60;;;8.00;86.00;;;;;;5061389;28;20065;-80
2021/04/20 05:51:43;;;;;;;52.63;26.67;;;8.00;84.70;;;;;;5057593;28;20462;-77
2021/04/20 05:54:09;;;;;;;37.03;27.50;;;8.10;83.90;;;;;;5060120;28;20024;-79
2021/04/20 05:56:36;;;;;;;37.60;27.40;;;8.20;83.20;;;;;;5059817;28;20333;-75
2021/04/20 05:59:04;;;;;;;37.40;25.77;;;8.40;83.00;;;;;;5070716;28;20170;-77
2021/04/20 06:01:34;;;;;;;35.33;25.93;;;8.50;81.60;;;;;;5067197;28;20120;-77
2021/04/20 06:03:59;;;;;;;37.00;25.73;;;8.70;80.90;;;;;;5069880;28;20073;-78
2021/04/20 06:06:25;;;;;;;41.07;27.83;;;9.00;80.20;;;;;;5067281;28;20060;-78
2021/04/20 06:08:53;;;;;;;38.50;28.40;;;9.20;79.40;;;;;;5071243;28;20028;-78
2021/04/20 06:11:20;;;;;;;46.77;27.37;;;9.40;78.60;;;;;;5067904;28;20043;-82
2021/04/20 06:13:47;;;;;;;50.90;28.13;;;9.60;77.80;;;;;;5071704;28;20028;-77
2021/04/20 06:16:13;;;;;;;34.97;25.97;;;9.70;76.80;;;;;;5069855;28;20486;-77
2021/04/20 06:18:39;;;;;;;42.03;27.13;;;9.80;77.00;;;;;;5069148;28;20085;-78
2021/04/20 06:21:08;;;;;;;39.17;26.83;;;10.00;76.50;;;;;;5065018;28;20028;-78
2021/04/20 06:23:35;;;;;;;32.30;25.50;;;10.20;75.90;;;;;;5070172;28;20107;-79
2021/04/20 06:26:03;;;;;;;38.23;26.30;;;10.30;75.60;;;;;;5069492;28;20062;-77
2021/04/20 06:28:31;;;;;;;37.83;28.30;;;10.70;75.70;;;;;;5068071;28;20124;-77
2021/04/20 06:30:57;;;;;;;34.23;26.07;;;11.00;75.20;;;;;;5063110;28;20070;-77
2021/04/20 06:33:27;;;;;;;38.23;26.97;;;11.10;73.10;;;;;;5068388;28;20382;-81
2021/04/20 06:35:54;;;;;;;38.73;27.63;;;11.20;73.00;;;;;;5050410;28;20036;-78
2021/04/20 06:38:21;;;;;;;37.13;27.43;;;11.30;72.40;;;;;;5070523;28;20044;-81
2021/04/20 06:40:49;;;;;;;35.23;27.37;;;11.30;71.90;;;;;;5069429;28;20048;-78
2021/04/20 06:43:20;;;;;;;67.30;31.07;;;11.40;72.60;;;;;;5070502;28;20107;-78
2021/04/20 06:45:51;;;;;;;42.10;28.20;;;11.50;71.90;;;;;;5066771;28;20035;-78
2021/04/20 06:48:35;;;;;;;35.80;28.70;;;11.60;72.10;;;;;;5067340;28;20573;-78
2021/04/20 06:51:03;;;;;;;44.83;29.73;;;11.70;72.50;;;;;;5069526;28;20040;-77
2021/04/20 06:53:38;;;;;;;39.50;30.13;;;11.90;72.00;;;;;;5070961;28;20028;-78
2021/04/20 06:56:20;;;;;;;32.50;28.27;;;12.20;71.50;;;;;;5058189;28;20437;-77
2021/04/20 06:59:00;;;;;;;35.30;28.93;;;12.60;71.10;;;;;;5055081;28;20181;-77
2021/04/20 07:01:34;;;;;;;33.43;28.83;;;12.80;70.10;;;;;;5057422;28;20017;-81
2021/04/20 07:04:09;;;;;;;36.73;27.90;;;13.00;69.90;;;;;;5065103;28;20039;-76
2021/04/20 07:06:43;;;;;;;33.03;28.43;;;13.40;69.30;;;;;;5072434;28;20025;-75
2021/04/20 07:09:40;;;;;;;32.83;28.57;;;13.70;68.60;;;;;;5060365;28;20032;-75
2021/04/20 07:12:06;;;;;;;34.10;28.70;;;14.10;68.50;;;;;;5064129;28;20052;-75
2021/04/20 07:14:35;;;;;;;32.83;29.27;;;14.60;67.40;;;;;;5067324;28;20094;-75
2021/04/20 07:17:12;;;;;;;35.92;29.63;;;15.10;66.30;;;;;;5067620;28;20032;-78
2021/04/20 07:20:02;;;;;;;36.08;29.75;;;15.60;66.00;;;;;;5056338;28;20029;-77
2021/04/20 07:22:53;;;;;;;51.28;36.55;;;16.10;64.80;;;;;;5065328;28;20028;-81
2021/04/20 07:25:38;;;;;;;64.05;43.72;;;16.60;63.70;;;;;;5067656;28;20090;-73
2021/04/20 07:28:29;;;;;;;56.80;40.72;;;17.00;62.50;;;;;;5069810;28;20098;-75
2021/04/20 07:31:17;;;;;;;56.63;39.97;;;17.80;61.50;;;;;;5057216;28;20021;-75
2021/04/20 07:34:14;;;;;;;44.72;34.63;;;18.80;59.90;;;;;;5046009;28;20017;-75
2021/04/20 07:37:11;;;;;;;39.65;34.47;;;19.10;57.40;;;;;;5046849;28;20085;-75
2021/04/20 07:40:03;;;;;;;42.45;35.45;;;19.50;56.10;;;;;;5047154;28;20021;-75
2021/04/20 07:43:06;;;;;;;45.08;38.28;;;19.70;55.40;;;;;;5004650;28;20086;-75
2021/04/20 07:45:38;;;;;;;42.67;37.72;;;20.00;54.70;;;;;;5046978;28;20029;-81
2021/04/20 07:48:30;;;;;;;42.75;38.15;;;20.00;54.60;;;;;;5048869;28;20036;-75
2021/04/20 07:51:00;;;;;;;52.90;45.13;;;20.40;55.10;;;;;;5033473;28;20044;-76
2021/04/20 07:53:43;;;;;;;51.00;43.40;;;21.00;53.50;;;;;;5054544;28;20017;-74
2021/04/20 07:56:30;;;;;;;51.20;43.65;;;21.50;52.00;;;;;;5051222;28;20491;-77
2021/04/20 07:59:02;;;;;;;55.75;45.05;;;21.90;51.00;;;;;;5051526;28;20037;-76
2021/04/20 08:02:00;;;;;;;51.47;45.47;;;22.00;49.50;;;;;;5054428;28;20033;-76
2021/04/20 08:04:38;;;;;;;52.00;46.30;;;22.30;49.70;;;;;;5034315;28;20167;-75
2021/04/20 08:07:09;;;;;;;49.75;44.45;;;22.60;47.70;;;;;;5067962;28;20139;-76
2021/04/20 08:09:39;;;;;;;46.45;40.55;;;22.70;48.10;;;;;;5071909;28;20075;-81
2021/04/20 08:12:11;;;;;;;46.20;41.30;;;22.80;48.30;;;;;;5070568;28;20025;-75
2021/04/20 08:14:36;;;;;;;50.38;44.92;;;23.00;47.90;;;;;;5073173;28;20029;-81
2021/04/20 08:17:10;;;;;;;53.97;45.75;;;23.00;47.70;;;;;;5068824;28;20036;-78
2021/04/20 08:19:42;;;;;;;50.20;44.72;;;23.10;48.10;;;;;;5051851;28;20051;-81
2021/04/20 08:22:10;;;;;;;53.38;47.67;;;23.20;46.70;;;;;;5056495;28;20108;-77
2021/04/20 08:24:44;;;;;;;49.90;44.55;;;23.10;47.40;;;;;;5072043;28;20032;-78
2021/04/20 08:27:18;;;;;;;52.30;45.65;;;23.30;47.10;;;;;;5071968;28;20398;-77
2021/04/20 08:29:48;;;;;;;51.40;45.85;;;23.50;46.90;;;;;;5070380;28;20432;-77
2021/04/20 08:32:19;;;;;;;51.58;46.03;;;23.60;45.80;;;;;;5073133;28;20024;-78
2021/04/20 08:34:51;;;;;;;58.07;49.40;;;23.50;44.90;;;;;;5069923;28;20024;-76
2021/04/20 08:37:51;;;;;;;54.53;48.58;;;23.50;45.30;;;;;;5070452;28;20035;-78
2021/04/20 08:40:22;;;;;;;52.25;46.60;;;23.50;46.70;;;;;;5071584;28;20385;-78
2021/04/20 08:42:51;;;;;;;52.85;47.13;;;23.80;45.70;;;;;;5072395;28;20048;-78
2021/04/20 08:45:35;;;;;;;51.85;46.20;;;24.10;44.70;;;;;;5072347;28;20020;-78
2021/04/20 08:48:24;;;;;;;51.63;46.03;;;24.20;44.90;;;;;;5072639;28;20033;-78
2021/04/20 08:51:14;;;;;;;50.25;44.75;;;24.40;45.10;;;;;;5070877;28;20024;-77
2021/04/20 08:54:09;;;;;;;49.80;44.42;;;24.80;44.00;;;;;;5071398;28;20024;-80
2021/04/20 08:56:43;;;;;;;51.47;44.78;;;25.00;43.40;;;;;;5063685;28;20060;-77
2021/04/20 08:59:29;;;;;;;48.90;43.88;;;24.90;42.10;;;;;;5068730;28;20060;-77
2021/04/20 09:01:58;;;;;;;49.25;43.85;;;25.10;42.70;;;;;;5070796;28;20024;-78
2021/04/20 09:04:45;;;;;;;51.78;46.10;;;25.30;42.80;;;;;;5060419;28;20027;-77
2021/04/20 09:07:17;;;;;;;50.22;45.00;;;25.50;42.30;;;;;;5046227;28;20511;-78
2021/04/20 09:09:46;;;;;;;;;;;25.60;41.70;;;;;;5031917;28;20029;-82
2021/04/20 09:12:15;;;;;;;51.38;44.35;;;25.60;41.50;;;;;;5066295;28;20372;-77
2021/04/20 09:14:42;;;;;;;48.78;43.58;;;25.60;41.80;;;;;;5070941;28;20047;-80
2021/04/20 09:17:17;;;;;;;49.38;44.00;;;25.60;41.10;;;;;;5069580;28;20094;-76
2021/04/20 09:20:02;;;;;;;47.50;42.20;;;25.40;39.80;;;;;;5072013;28;20033;-77
2021/04/20 09:22:50;;;;;;;50.72;45.42;;;25.30;41.70;;;;;;5071135;28;20036;-77
2021/04/20 09:25:34;;;;;;;52.95;47.30;;;25.60;41.50;;;;;;5068875;28;20114;-76
2021/04/20 09:28:09;;;;;;;51.90;46.30;;;25.60;40.60;;;;;;5070123;28;20131;-77
2021/04/20 09:30:46;;;;;;;50.55;45.17;;;25.50;40.80;;;;;;5070984;28;20483;-75
2021/04/20 09:33:33;;;;;;;48.65;43.50;;;25.50;41.60;;;;;;5071633;28;20024;-75
2021/04/20 09:35:59;;;;;;;51.60;44.13;;;25.60;41.40;;;;;;5069493;28;20386;-76
2021/04/20 09:38:28;;;;;;;49.97;42.83;;;25.80;41.50;;;;;;5072525;28;20197;-75
2021/04/20 09:40:56;;;;;;;49.33;42.88;;;25.90;40.40;;;;;;5060898;28;20385;-76
2021/04/20 09:43:24;;;;;;;50.55;45.10;;;26.10;40.50;;;;;;5072000;28;20108;-76
2021/04/20 09:46:07;;;;;;;52.28;46.63;;;26.10;38.30;;;;;;5068475;28;20390;-80
2021/04/20 09:49:14;;;;;;;51.35;42.42;;;25.40;38.60;;;;;;5070555;28;20104;-75
2021/04/20 09:52:05;;;;;;;54.83;43.33;;;24.80;40.30;;;;;;4990512;28;20124;-75
2021/04/20 09:54:45;;;;;;;50.80;43.13;;;24.80;41.50;;;;;;4988363;28;20042;-75
2021/04/20 09:57:14;;;;;;;51.60;41.42;;;25.20;41.00;;;;;;5029830;28;20047;-81
2021/04/20 09:59:48;;;;;;;49.45;39.30;;;25.50;41.20;;;;;;5051009;28;20387;-75
2021/04/20 10:02:35;;;;;;;45.35;37.90;;;25.90;40.00;;;;;;5048661;28;20029;-75
2021/04/20 10:05:09;;;;;;;45.15;37.90;;;26.20;39.40;;;;;;5049753;28;20486;-77
2021/04/20 10:07:54;;;;;;;37.30;33.15;;;26.80;38.00;;;;;;5054768;28;20136;-75
2021/04/20 10:10:31;;;;;;;39.60;33.75;;;26.70;38.50;;;;;;5062262;28;20107;-75
2021/04/20 10:12:57;;;;;;;38.42;32.75;;;27.10;37.00;;;;;;5047815;28;20025;-75
2021/04/20 10:15:54;;;;;;;42.05;35.63;;;27.10;37.00;;;;;;5054055;28;20031;-77
2021/04/20 10:18:33;;;;;;;38.08;33.33;;;26.80;36.30;;;;;;5067590;28;20608;-75
2021/04/20 10:21:29;;;;;;;34.42;30.67;;;25.70;36.60;;;;;;5069156;28;20033;-75
2021/04/20 10:24:32;;;;;;;35.72;32.05;;;24.90;38.40;;;;;;5063073;28;20955;-81
2021/04/20 10:27:08;;;;;;;35.60;31.73;;;24.90;38.70;;;;;;4980728;28;20512;-78
2021/04/20 10:29:51;;;;;;;37.40;31.85;;;24.30;38.50;;;;;;5053986;28;20044;-76
2021/04/20 10:32:22;;;;;;;36.22;32.33;;;23.90;40.30;;;;;;5048912;28;20021;-75
2021/04/20 10:34:51;;;;;;;40.17;33.45;;;23.70;40.60;;;;;;5049530;28;20037;-74
2021/04/20 10:37:34;;;;;;;29.38;26.23;;;23.60;41.00;;;;;;5048456;28;20200;-76
2021/04/20 10:40:03;;;;;;;22.00;19.70;;;23.60;39.50;;;;;;5050460;28;21870;-76
2021/04/20 10:42:33;;;;;;;17.80;16.00;;;23.90;37.60;;;;;;5069525;28;20071;-76
2021/04/20 10:45:01;;;;;;;19.58;17.48;;;24.30;37.80;;;;;;5063908;28;20035;-76
2021/04/20 10:47:27;;;;;;;23.83;21.23;;;24.70;37.10;;;;;;5057731;28;20041;-78
2021/04/20 10:49:56;;;;;;;27.33;24.42;;;24.70;35.30;;;;;;5036554;28;20397;-76
2021/04/20 10:52:24;;;;;;;25.25;22.60;;;24.40;35.20;;;;;;5066834;28;20047;-74
2021/04/20 10:54:53;;;;;;;23.05;20.60;;;24.20;36.30;;;;;;5062691;28;20036;-75
2021/04/20 10:57:19;;;;;;;22.42;20.05;;;24.10;35.50;;;;;;5035206;28;20112;-77
2021/04/20 10:59:51;;;;;;;23.35;20.95;;;24.00;34.50;;;;;;5057041;28;20049;-75
2021/04/20 11:02:22;;;;;;;;;;;24.00;37.10;;;;;;5057519;28;20575;-74
2021/04/20 11:04:51;;;;;;;25.27;22.20;;;24.30;37.10;;;;;;5070451;28;19958;-75
2021/04/20 11:07:29;;;;;;;25.85;23.05;;;24.60;36.30;;;;;;5065361;28;20025;-75
2021/04/20 11:10:15;;;;;;;21.83;19.60;;;24.40;36.20;;;;;;5063533;28;20024;-76
2021/04/20 11:12:47;;;;;;;25.17;22.40;;;24.40;33.40;;;;;;5029946;28;20034;-76
2021/04/20 11:15:20;;;;;;;;;;;24.10;34.90;;;;;;5012880;28;20049;-75
2021/04/20 11:17:55;;;;;;;27.35;24.10;;;23.70;36.00;;;;;;5032626;28;19921;-76
2021/04/20 11:20:42;;;;;;;25.00;22.40;;;23.70;35.50;;;;;;5061754;28;20615;-77
2021/04/20 11:23:11;;;;;;;26.35;23.55;;;23.80;36.60;;;;;;5050407;28;20178;-75
2021/04/20 11:25:46;;;;;;;21.38;19.08;;;24.10;35.80;;;;;;5032845;28;20061;-75
2021/04/20 11:28:34;;;;;;;20.77;18.55;;;24.10;36.30;;;;;;5038485;28;20040;-76
2021/04/20 11:31:03;;;;;;;20.95;18.63;;;23.90;35.80;;;;;;5038434;28;20037;-82
2021/04/20 11:33:43;;;;;;;21.70;18.27;;;24.40;36.30;;;;;;5065053;28;20040;-76
2021/04/20 11:36:21;;;;;;;23.17;20.65;;;24.80;35.50;;;;;;5067847;28;20474;-77
2021/04/20 11:38:50;;;;;;;24.05;21.20;;;25.20;36.30;;;;;;5068988;28;20106;-76
2021/04/20 11:41:18;;;;;;;23.55;21.05;;;25.10;33.20;;;;;;5062355;28;20032;-76
2021/04/20 11:43:55;;;;;;;22.73;20.33;;;24.20;33.70;;;;;;5069872;28;20028;-77
2021/04/20 11:46:23;;;;;;;26.77;23.98;;;23.50;35.90;;;;;;5056655;28;20021;-76
2021/04/20 11:48:53;;;;;;;27.83;24.77;;;23.50;36.00;;;;;;5053882;28;20072;-76
2021/04/20 11:51:19;;;;;;;31.55;25.42;;;22.80;37.70;;;;;;5068090;28;20122;-76
2021/04/20 11:53:48;;;;;;;28.50;25.35;;;22.70;38.10;;;;;;5066124;28;21778;-77
2021/04/20 11:56:14;;;;;;;27.35;24.33;;;22.40;38.40;;;;;;5062701;28;20059;-75
2021/04/20 11:58:42;;;;;;;31.13;27.73;;;22.30;39.60;;;;;;5050489;28;20525;-77
2021/04/20 12:01:21;;;;;;;33.20;29.00;;;22.30;39.20;;;;;;5068934;28;20059;-77
2021/04/20 12:03:56;;;;;;;30.17;26.15;;;21.80;38.90;;;;;;5053650;28;20195;-80
2021/04/20 12:06:23;;;;;;;27.67;24.48;;;20.80;40.40;;;;;;5056657;28;20393;-75
2021/04/20 12:08:54;;;;;;;29.65;26.55;;;20.80;42.20;;;;;;5069793;28;20116;-75
2021/04/20 12:11:24;;;;;;;30.63;27.08;;;21.10;41.50;;;;;;5064370;28;20024;-75
2021/04/20 12:13:51;;;;;;;29.05;25.65;;;21.20;40.80;;;;;;5054652;28;20109;-76
2021/04/20 12:16:17;;;;;;;29.17;26.02;;;21.10;39.70;;;;;;5028413;28;20528;-77
2021/04/20 12:18:45;;;;;;;27.00;23.95;;;20.90;40.20;;;;;;5041873;28;20509;-76
2021/04/20 12:21:18;;;;;;;26.70;23.80;;;21.00;41.60;;;;;;5060674;28;20552;-82
2021/04/20 12:23:51;;;;;;;25.25;22.58;;;21.20;40.10;;;;;;5041812;28;20638;-75
2021/04/20 12:26:17;;;;;;;26.45;23.65;;;21.30;41.00;;;;;;5059035;28;20040;-75
2021/04/20 12:28:48;;;;;;;26.75;23.13;;;21.50;39.80;;;;;;5048149;28;20041;-74
2021/04/20 12:31:15;;;;;;;24.67;22.00;;;21.60;40.20;;;;;;5067740;28;20042;-75
2021/04/20 12:33:41;;;;;;;26.30;23.52;;;21.80;39.90;;;;;;5066511;28;20087;-76
2021/04/20 12:36:07;;;;;;;22.67;20.27;;;21.80;38.90;;;;;;5047721;28;20482;-76
2021/04/20 12:38:38;;;;;;;25.20;22.50;;;21.70;38.80;;;;;;5032500;28;20593;-75
2021/04/20 12:41:05;;;;;;;24.42;21.40;;;21.50;38.50;;;;;;5047936;28;20029;-75
2021/04/20 12:43:33;;;;;;;21.52;19.33;;;21.40;38.50;;;;;;5051250;28;20033;-75
2021/04/20 12:46:04;;;;;;;23.77;21.27;;;21.40;39.00;;;;;;5050368;28;20021;-75
2021/04/20 12:48:30;;;;;;;26.60;22.23;;;21.20;38.50;;;;;;5050028;28;20048;-75
2021/04/20 12:50:58;;;;;;;23.83;21.25;;;21.20;38.60;;;;;;5058991;28;20028;-75
2021/04/20 12:53:24;;;;;;;24.80;21.23;;;21.00;39.50;;;;;;5051630;28;20027;-75